createdAt,value
2022-11-09T00:00:39.587Z,53.78
2022-11-09T00:03:57.162Z,53.87
2022-11-09T00:07:08.112Z,57.40
2022-11-09T00:10:22.426Z,51.42
2022-11-09T00:13:31.484Z,52.92
2022-11-09T00:16:38.357Z,59.72
2022-11-09T00:19:51.059Z,66.28
2022-11-09T00:23:14.580Z,61.47
2022-11-09T00:26:20.923Z,49.28
2022-11-09T00:29:32.650Z,59.28
2022-11-09T00:32:48.544Z,52.20
2022-11-09T00:35:56.904Z,63.65
2022-11-09T00:39:04.221Z,53.75
2022-11-09T00:42:12.431Z,53.90
2022-11-09T00:45:18.323Z,54.92
2022-11-09T00:48:33.499Z,59.25
2022-11-09T00:51:43.350Z,56.00
2022-11-09T00:54:52.964Z,54.97
2022-11-09T00:58:03.145Z,56.83
2022-11-09T01:01:12.366Z,59.22
2022-11-09T01:04:19.866Z,51.30
2022-11-09T01:11:11.958Z,50.55
2022-11-09T01:14:18.270Z,58.45
2022-11-09T01:17:22.436Z,58.28
2022-11-09T01:20:29.762Z,57.17
2022-11-09T01:23:37.810Z,52.92
2022-11-09T01:26:50.344Z,59.85
2022-11-09T01:30:06.637Z,52.78
2022-11-09T01:33:27.274Z,52.42
2022-11-09T01:36:35.589Z,46.00
2022-11-09T01:39:43.163Z,53.50
2022-11-09T01:42:52.750Z,50.30
2022-11-09T01:46:08.299Z,58.90
2022-11-09T01:49:26.789Z,43.70
2022-11-09T01:52:39.873Z,45.30
2022-11-09T01:56:00.422Z,46.55
2022-11-09T02:02:18.105Z,43.53
2022-11-09T02:05:28.553Z,48.50
2022-11-09T02:11:39.524Z,41.53
2022-11-09T02:15:18.112Z,43.22
2022-11-09T02:18:32.370Z,39.80
2022-11-09T02:21:40.404Z,42.38
2022-11-09T02:25:25.600Z,43.38
2022-11-09T02:32:20.347Z,38.58
2022-11-09T02:35:25.540Z,42.97
2022-11-09T02:38:32.419Z,42.85
2022-11-09T02:41:50.060Z,45.72
2022-11-09T02:45:09.847Z,45.58
2022-11-09T02:48:24.181Z,46.33
2022-11-09T02:51:40.758Z,38.90
2022-11-09T02:54:53.962Z,38.25
2022-11-09T02:58:17.112Z,39.03
2022-11-09T03:01:23.838Z,45.00
2022-11-09T03:04:37.197Z,40.50
2022-11-09T03:07:42.749Z,40.63
2022-11-09T03:10:50.025Z,39.58
2022-11-09T03:13:59.017Z,36.63
2022-11-09T03:20:32.270Z,37.92
2022-11-09T03:23:40.909Z,45.50
2022-11-09T03:26:44.888Z,39.65
2022-11-09T03:29:49.668Z,41.33
2022-11-09T03:33:17.311Z,40.80
2022-11-09T03:36:27.924Z,37.25
2022-11-09T03:39:36.935Z,44.75
2022-11-09T03:42:54.050Z,41.45
2022-11-09T03:46:01.783Z,45.22
2022-11-09T03:49:48.299Z,36.63
2022-11-09T03:53:01.387Z,44.55
2022-11-09T03:56:13.066Z,48.90
2022-11-09T03:59:25.924Z,42.97
2022-11-09T04:02:40.975Z,38.53
2022-11-09T04:09:46.569Z,43.15
2022-11-09T04:12:53.255Z,42.95
2022-11-09T04:16:05.711Z,44.63
2022-11-09T04:19:24.242Z,38.33
2022-11-09T04:22:41.157Z,41.67
2022-11-09T04:25:48.925Z,40.95
2022-11-09T04:28:58.585Z,39.53
2022-11-09T04:32:17.712Z,46.60
2022-11-09T04:35:42.719Z,46.45
2022-11-09T04:42:19.835Z,43.25
2022-11-09T04:56:41.069Z,43.85
2022-11-09T04:59:43.502Z,44.90
2022-11-09T05:02:45.556Z,58.38
2022-11-09T05:05:48.697Z,45.17
2022-11-09T05:08:51.447Z,47.55
2022-11-09T05:11:53.801Z,47.33
2022-11-09T05:14:55.883Z,42.58
2022-11-09T05:17:58.532Z,40.30
2022-11-09T05:21:02.210Z,46.90
2022-11-09T05:24:04.851Z,41.88
2022-11-09T05:27:07.063Z,51.53
2022-11-09T05:30:09.880Z,48.75
2022-11-09T05:33:12.024Z,39.33
2022-11-09T05:36:14.639Z,44.45
2022-11-09T05:39:17.490Z,43.72
2022-11-09T05:42:20.032Z,41.55
2022-11-09T05:45:41.333Z,44.08
2022-11-09T05:48:45.417Z,45.38
2022-11-09T05:51:47.611Z,49.35
2022-11-09T05:54:50.491Z,44.03
2022-11-09T05:57:52.791Z,46.78
2022-11-09T06:00:55.495Z,39.95
2022-11-09T06:03:58.899Z,39.92
2022-11-09T06:07:02.697Z,41.92
2022-11-09T06:10:06.147Z,34.90
2022-11-09T06:13:08.856Z,34.42
2022-11-09T06:16:11.592Z,47.13
2022-11-09T06:19:13.861Z,39.38
2022-11-09T06:22:16.603Z,40.45
2022-11-09T06:25:18.902Z,45.15
2022-11-09T06:28:22.443Z,43.90
2022-11-09T06:31:24.751Z,45.42
2022-11-09T06:34:27.323Z,56.80
2022-11-09T06:37:30.987Z,41.83
2022-11-09T06:40:33.670Z,47.30
2022-11-09T06:43:36.089Z,40.12
2022-11-09T06:46:38.953Z,38.13
2022-11-09T06:49:41.130Z,42.13
2022-11-09T06:52:44.686Z,45.97
2022-11-09T06:55:50.569Z,39.08
2022-11-09T06:58:53.557Z,39.13
2022-11-09T07:02:01.078Z,38.17
2022-11-09T07:05:06.430Z,37.50
2022-11-09T07:08:09.921Z,37.22
2022-11-09T07:11:22.695Z,47.35
2022-11-09T07:14:26.176Z,46.97
2022-11-09T07:17:32.868Z,40.53
2022-11-09T07:20:35.504Z,41.00
2022-11-09T07:23:38.156Z,37.28
2022-11-09T07:26:40.255Z,39.05
2022-11-09T07:29:42.662Z,34.42
2022-11-09T07:36:08.122Z,41.05
2022-11-09T07:39:11.841Z,34.20
2022-11-09T07:42:14.387Z,40.72
2022-11-09T07:45:16.889Z,35.42
2022-11-09T07:48:19.557Z,38.47
2022-11-09T07:51:22.636Z,41.53
2022-11-09T07:54:27.050Z,39.15
2022-11-09T07:57:29.324Z,47.70
2022-11-09T08:00:34.335Z,43.65
2022-11-09T08:03:38.394Z,45.85
2022-11-09T08:06:41.002Z,47.72
2022-11-09T08:09:44.077Z,44.67
2022-11-09T08:12:56.506Z,48.90
2022-11-09T08:16:03.198Z,46.17
2022-11-09T08:19:05.930Z,43.13
2022-11-09T08:22:09.235Z,46.22
2022-11-09T08:25:14.558Z,52.17
2022-11-09T08:28:17.471Z,51.78
2022-11-09T08:31:20.394Z,46.65
2022-11-09T08:34:24.602Z,48.67
2022-11-09T08:37:26.736Z,54.40
2022-11-09T08:40:29.996Z,53.53
2022-11-09T08:43:32.342Z,57.40
2022-11-09T08:46:39.886Z,45.33
2022-11-09T08:49:44.195Z,58.78
2022-11-09T08:52:46.524Z,49.80
2022-11-09T08:55:49.738Z,52.85
2022-11-09T08:58:52.482Z,44.00
2022-11-09T09:01:54.615Z,50.75
2022-11-09T09:04:57.147Z,54.95
2022-11-09T09:08:00.678Z,48.65
2022-11-09T09:11:06.468Z,52.28
2022-11-09T09:14:08.934Z,42.72
2022-11-09T09:17:11.524Z,43.50
2022-11-09T09:20:13.874Z,46.40
2022-11-09T09:23:17.236Z,46.78
2022-11-09T09:26:20.740Z,42.83
2022-11-09T09:29:23.292Z,45.70
2022-11-09T09:32:25.595Z,46.47
2022-11-09T09:35:28.734Z,45.15
2022-11-09T09:38:30.868Z,45.95
2022-11-09T09:42:07.803Z,45.83
2022-11-09T09:45:19.691Z,49.47
2022-11-09T09:48:45.197Z,46.90
2022-11-09T09:52:01.414Z,48.15
2022-11-09T09:55:12.415Z,52.65
2022-11-09T09:58:29.469Z,56.42
2022-11-09T10:01:42.158Z,47.22
2022-11-09T10:04:45.080Z,55.22
2022-11-09T10:08:05.625Z,50.53
2022-11-09T10:11:33.613Z,46.88
2022-11-09T10:15:00.507Z,51.97
2022-11-09T10:18:28.011Z,51.42
2022-11-09T10:21:46.342Z,52.08
2022-11-09T10:25:20.853Z,67.73
2022-11-09T10:28:19.809Z,49.65
2022-11-09T10:31:23.577Z,55.22
2022-11-09T10:34:33.613Z,55.75
2022-11-09T10:37:46.636Z,47.60
2022-11-09T10:41:23.837Z,57.28
2022-11-09T10:44:44.928Z,56.45
2022-11-09T10:48:07.790Z,51.15
2022-11-09T10:51:28.321Z,53.58
2022-11-09T10:54:49.131Z,57.85
2022-11-09T10:58:38.213Z,62.80
2022-11-09T11:02:02.236Z,59.00
2022-11-09T11:05:26.589Z,61.35
2022-11-09T11:08:58.205Z,54.75
2022-11-09T11:12:22.622Z,59.95
2022-11-09T11:15:43.600Z,63.35
2022-11-09T11:19:05.648Z,60.10
2022-11-09T11:22:27.613Z,58.13
2022-11-09T11:26:15.886Z,62.75
2022-11-09T11:29:48.749Z,60.05
2022-11-09T11:33:19.295Z,69.62
2022-11-09T11:37:01.693Z,68.55
2022-11-09T11:40:30.717Z,64.47
2022-11-09T11:44:10.388Z,76.72
2022-11-09T11:47:57.722Z,72.97
2022-11-09T11:51:37.850Z,70.65
2022-11-09T11:58:37.676Z,71.53
2022-11-09T12:02:23.939Z,68.00
2022-11-09T12:05:54.472Z,60.80
2022-11-09T12:09:41.214Z,67.18
2022-11-09T12:13:40.055Z,81.53
2022-11-09T12:17:10.510Z,67.53
2022-11-09T12:20:55.864Z,72.68
2022-11-09T12:24:30.290Z,70.10
2022-11-09T12:28:14.912Z,68.95
2022-11-09T12:32:11.177Z,66.50
2022-11-09T12:35:43.665Z,77.55
2022-11-09T12:39:36.404Z,72.72
2022-11-09T12:43:18.483Z,74.72
2022-11-09T12:46:45.978Z,71.78
2022-11-09T12:50:12.338Z,80.43
2022-11-09T12:53:38.897Z,72.40
2022-11-09T12:57:01.437Z,78.47
2022-11-09T13:00:34.310Z,74.50
2022-11-09T13:03:57.529Z,76.47
2022-11-09T13:07:30.194Z,76.15
2022-11-09T13:11:09.733Z,69.87
2022-11-09T13:14:35.783Z,63.00
2022-11-09T13:18:00.008Z,77.53
2022-11-09T13:21:20.885Z,73.65
2022-11-09T13:25:02.388Z,76.10
2022-11-09T13:28:33.748Z,75.87
2022-11-09T13:32:23.934Z,67.50
2022-11-09T13:35:47.838Z,78.82
2022-11-09T13:39:31.355Z,72.28
2022-11-09T13:43:10.412Z,75.47
2022-11-09T13:46:39.030Z,71.53
2022-11-09T13:50:01.481Z,75.35
2022-11-09T13:53:48.510Z,73.87
2022-11-09T13:57:10.608Z,86.65
2022-11-09T14:00:33.018Z,80.75
2022-11-09T14:03:53.519Z,78.43
2022-11-09T14:07:29.187Z,71.78
2022-11-09T14:10:56.284Z,83.45
2022-11-09T14:14:36.016Z,74.53
2022-11-09T14:18:18.617Z,72.50
2022-11-09T14:21:50.669Z,83.90
2022-11-09T14:25:20.819Z,85.90
2022-11-09T14:32:27.618Z,72.15
2022-11-09T14:35:49.061Z,71.93
2022-11-09T14:39:37.734Z,70.55
2022-11-09T14:43:02.908Z,70.87
2022-11-09T14:46:28.757Z,96.97
2022-11-09T14:49:50.305Z,87.97
2022-11-09T14:53:26.232Z,97.00
2022-11-09T14:56:47.447Z,87.07
2022-11-09T15:00:34.692Z,84.05
2022-11-09T15:04:22.634Z,84.53
2022-11-09T15:07:48.469Z,78.18
2022-11-09T15:11:09.362Z,71.12
2022-11-09T15:14:34.534Z,81.85
2022-11-09T15:17:55.376Z,83.12
2022-11-09T15:21:33.816Z,86.65
2022-11-09T15:24:54.346Z,82.88
2022-11-09T15:28:27.410Z,80.03
2022-11-09T15:32:00.962Z,84.55
2022-11-09T15:35:22.661Z,78.45
2022-11-09T15:38:46.434Z,82.68
2022-11-09T15:42:11.840Z,84.37
2022-11-09T15:45:32.484Z,79.05
2022-11-09T15:48:53.305Z,84.45
2022-11-09T15:52:13.898Z,84.87
2022-11-09T15:55:34.637Z,80.22
2022-11-09T15:58:55.541Z,84.25
2022-11-09T16:02:19.083Z,86.30
2022-11-09T16:05:39.997Z,83.35
2022-11-09T16:09:00.894Z,82.97
2022-11-09T16:12:21.771Z,81.70
2022-11-09T16:15:42.904Z,87.35
2022-11-09T16:19:03.288Z,85.75
2022-11-09T16:22:24.148Z,86.00
2022-11-09T16:25:45.071Z,81.78
2022-11-09T16:29:05.839Z,81.43
2022-11-09T16:32:27.297Z,82.97
2022-11-09T16:35:48.030Z,90.68
2022-11-09T16:39:12.767Z,80.45
2022-11-09T16:42:34.315Z,88.97
2022-11-09T16:45:55.094Z,86.20
2022-11-09T16:49:15.953Z,83.25
2022-11-09T16:52:36.916Z,77.80
2022-11-09T16:55:58.311Z,86.32
2022-11-09T16:59:19.861Z,87.57
2022-11-09T17:02:40.997Z,84.57
2022-11-09T17:06:02.715Z,84.07
2022-11-09T17:09:23.706Z,92.35
2022-11-09T17:12:44.634Z,87.55
2022-11-09T17:16:09.082Z,88.78
2022-11-09T17:19:34.649Z,100.78
2022-11-09T17:22:55.527Z,96.32
2022-11-09T17:26:17.024Z,82.00
2022-11-09T17:29:38.432Z,90.90
2022-11-09T17:32:59.449Z,92.95
2022-11-09T17:36:41.609Z,88.03
2022-11-09T17:43:21.256Z,83.55
2022-11-09T17:46:42.450Z,90.35
2022-11-09T17:50:03.866Z,87.95
2022-11-09T17:53:25.155Z,87.85
2022-11-09T17:56:45.822Z,85.65
2022-11-09T18:00:07.848Z,90.75
2022-11-09T18:03:32.114Z,91.78
2022-11-09T18:06:53.310Z,94.80
2022-11-09T18:10:14.418Z,89.62
2022-11-09T18:13:35.188Z,81.05
2022-11-09T18:16:55.982Z,85.82
2022-11-09T18:20:17.325Z,92.90
2022-11-09T18:23:38.022Z,85.12
2022-11-09T18:26:59.680Z,88.65
2022-11-09T18:30:23.036Z,79.43
2022-11-09T18:33:43.874Z,82.15
2022-11-09T18:37:04.748Z,87.97
2022-11-09T18:40:25.243Z,86.65
2022-11-09T18:43:46.564Z,76.93
2022-11-09T18:47:10.338Z,76.90
2022-11-09T18:50:31.070Z,91.97
2022-11-09T18:53:52.171Z,76.95
2022-11-09T18:57:18.592Z,81.25
2022-11-09T19:00:41.514Z,85.12
2022-11-09T19:04:02.227Z,82.47
2022-11-09T19:07:23.435Z,85.10
2022-11-09T19:10:43.969Z,87.43
2022-11-09T19:14:04.603Z,83.70
2022-11-09T19:17:25.290Z,84.43
2022-11-09T19:20:49.987Z,86.43
2022-11-09T19:24:16.931Z,80.53
2022-11-09T19:27:37.809Z,84.45
2022-11-09T19:30:59.727Z,78.28
2022-11-09T19:34:21.922Z,85.40
2022-11-09T19:37:42.783Z,76.95
2022-11-09T19:41:03.814Z,85.50
2022-11-09T19:44:24.809Z,85.90
2022-11-09T19:47:48.851Z,77.07
2022-11-09T19:51:09.513Z,79.18
2022-11-09T19:54:30.614Z,89.75
2022-11-09T19:57:51.269Z,81.60
2022-11-09T20:01:12.241Z,72.03
2022-11-09T20:04:33.200Z,74.28
2022-11-09T20:07:53.741Z,77.45
2022-11-09T20:11:38.459Z,70.12
2022-11-09T20:14:59.162Z,73.05
2022-11-09T20:18:23.716Z,74.12
2022-11-09T20:21:44.952Z,78.60
2022-11-09T20:25:05.611Z,74.12
2022-11-09T20:28:26.287Z,75.03
2022-11-09T20:31:47.195Z,68.18
2022-11-09T20:35:08.695Z,74.25
2022-11-09T20:38:29.494Z,73.22
2022-11-09T20:41:50.262Z,75.03
2022-11-09T20:45:11.037Z,69.55
2022-11-09T20:48:52.720Z,78.37
2022-11-09T20:52:13.402Z,73.62
2022-11-09T20:55:37.374Z,72.97
2022-11-09T20:58:58.259Z,77.10
2022-11-09T21:02:19.311Z,82.75
2022-11-09T21:05:40.161Z,74.82
2022-11-09T21:09:01.386Z,79.32
2022-11-09T21:12:21.866Z,74.37
2022-11-09T21:15:42.589Z,85.68
2022-11-09T21:19:03.218Z,74.28
2022-11-09T21:22:43.977Z,77.80
2022-11-09T21:26:23.143Z,81.43
2022-11-09T21:29:53.081Z,98.95
2022-11-09T21:33:13.892Z,85.40
2022-11-09T21:36:34.851Z,96.03
2022-11-09T21:39:55.840Z,84.87
2022-11-09T21:43:16.739Z,88.55
2022-11-09T21:46:39.773Z,91.80
2022-11-09T21:50:00.312Z,94.65
2022-11-09T21:53:21.417Z,84.68
2022-11-09T21:56:42.522Z,90.85
2022-11-09T22:00:03.901Z,92.82
2022-11-09T22:03:24.968Z,102.22
2022-11-09T22:06:45.794Z,97.68
2022-11-09T22:10:10.489Z,99.65
2022-11-09T22:13:50.727Z,95.57
2022-11-09T22:17:12.545Z,91.75
2022-11-09T22:20:51.847Z,86.87
2022-11-09T22:24:12.749Z,89.68
2022-11-09T22:27:33.697Z,98.78
2022-11-09T22:30:54.378Z,100.00
2022-11-09T22:34:15.409Z,100.47
2022-11-09T22:37:35.878Z,101.87
2022-11-09T22:41:01.570Z,109.87
2022-11-09T22:44:22.520Z,100.62
2022-11-09T22:47:43.447Z,108.07
2022-11-09T22:51:05.060Z,103.20
2022-11-09T22:54:26.053Z,102.80
2022-11-09T22:57:46.654Z,97.80
2022-11-09T23:01:11.188Z,104.78
2022-11-09T23:04:32.290Z,113.30
2022-11-09T23:07:55.140Z,101.93
2022-11-09T23:11:23.123Z,104.50
2022-11-09T23:15:05.169Z,109.90
2022-11-09T23:18:46.129Z,115.50
2022-11-09T23:22:06.978Z,110.85
2022-11-09T23:25:46.543Z,124.18
2022-11-09T23:29:07.478Z,111.07
2022-11-09T23:32:28.506Z,124.57
2022-11-09T23:35:49.455Z,113.32
2022-11-09T23:39:10.200Z,111.72
2022-11-09T23:42:31.152Z,116.97
2022-11-09T23:45:51.888Z,123.32
2022-11-09T23:49:12.671Z,118.20
2022-11-09T23:52:34.270Z,119.55
2022-11-09T23:56:00.420Z,114.45
2022-11-09T23:59:21.008Z,118.37
